Time;durP1;ratioP1;P1;durP2;ratioP2;P2;SDS_P1;SDS_P2;PMS_P1;PMS_P2;Temp;Humidity;BMP_temperature;BMP_pressure;BME280_temperature;BME280_humidity;BME280_pressure;Samples;Min_cycle;Max_cycle;Signal;HPM_P1;HPM_P2
2021/07/16 00:01:17;;;;;;;;;10.00;7.67;;;;;18.48;62.21;101790.06;5033614;28;45456;-63
2021/07/16 00:03:43;;;;;;;;;14.00;12.67;;;;;18.47;62.42;101791.06;5033026;28;46288;-64
2021/07/16 00:06:08;;;;;;;;;10.67;9.67;;;;;18.46;62.45;101790.22;5032051;28;45691;-62
2021/07/16 00:08:34;;;;;;;;;10.00;9.67;;;;;18.46;62.55;101794.69;5031899;28;45509;-63
2021/07/16 00:11:00;;;;;;;;;14.67;8.00;;;;;18.45;62.70;101785.88;5033236;28;45324;-61
2021/07/16 00:13:25;;;;;;;;;12.67;9.67;;;;;18.46;62.73;101784.91;5033766;28;45595;-63
2021/07/16 00:15:50;;;;;;;;;10.67;10.00;;;;;18.47;62.60;101781.28;5032929;28;45628;-62
2021/07/16 00:18:16;;;;;;;;;10.00;9.00;;;;;18.46;62.88;101784.03;5032713;28;45942;-61
2021/07/16 00:20:44;;;;;;;;;15.00;9.00;;;;;18.46;62.66;101789.38;5032775;28;45466;-63
2021/07/16 00:23:12;;;;;;;;;9.33;9.33;;;;;18.43;63.04;101779.84;5032412;28;45417;-62
2021/07/16 00:25:37;;;;;;;;;12.33;10.33;;;;;18.44;62.75;101786.03;5032976;28;45654;-63
2021/07/16 00:28:03;;;;;;;;;12.00;11.67;;;;;18.44;62.76;101788.69;5032237;28;45392;-62
2021/07/16 00:30:29;;;;;;;;;15.33;12.00;;;;;18.43;62.86;101784.34;5031321;28;45434;-63
2021/07/16 00:32:54;;;;;;;;;13.33;9.33;;;;;18.44;63.27;101786.84;5029366;28;45579;-63
2021/07/16 00:35:20;;;;;;;;;15.67;14.00;;;;;18.44;63.24;101780.69;5018676;28;46013;-63
2021/07/16 00:37:45;;;;;;;;;17.00;12.33;;;;;18.42;63.28;101782.66;5028789;28;45505;-62
2021/07/16 00:40:11;;;;;;;;;8.67;8.00;;;;;18.40;63.29;101776.66;5032975;28;45551;-64
2021/07/16 00:42:37;;;;;;;;;11.00;10.67;;;;;18.39;63.48;101781.09;5032548;28;45531;-63
2021/07/16 00:45:06;;;;;;;;;15.67;15.33;;;;;18.37;63.57;101780.44;5031642;28;47124;-63
2021/07/16 00:47:32;;;;;;;;;10.33;10.33;;;;;18.38;63.64;101781.25;5032569;28;45565;-63
2021/07/16 00:49:57;;;;;;;;;13.33;10.00;;;;;18.36;63.60;101780.53;5031601;28;45523;-63
2021/07/16 00:52:23;;;;;;;;;16.67;12.33;;;;;18.32;63.58;101782.66;5033674;28;45435;-65
2021/07/16 00:54:48;;;;;;;;;20.33;18.33;;;;;18.30;63.70;101782.78;5035989;28;46290;-65
2021/07/16 00:57:14;;;;;;;;;16.00;13.00;;;;;18.28;63.88;101782.09;5035954;28;45788;-63
2021/07/16 00:59:39;;;;;;;;;15.67;14.00;;;;;18.30;63.90;101787.28;5028217;28;45481;-62
2021/07/16 01:02:05;;;;;;;;;13.67;12.67;;;;;18.30;63.85;101795.25;5035967;28;45399;-63
2021/07/16 01:04:30;;;;;;;;;24.00;19.33;;;;;18.29;63.93;101789.09;5036592;28;45601;-62
2021/07/16 01:06:56;;;;;;;;;28.67;19.33;;;;;18.30;63.88;101793.41;5035699;28;46155;-63
2021/07/16 01:09:21;;;;;;;;;11.33;11.33;;;;;18.30;64.50;101784.59;5035812;28;45335;-63
2021/07/16 01:11:47;;;;;;;;;15.00;10.33;;;;;18.25;64.04;101787.69;5036033;28;45398;-62
2021/07/16 01:14:12;;;;;;;;;14.67;12.00;;;;;18.23;64.63;101800.28;5035657;28;45663;-62
2021/07/16 01:16:38;;;;;;;;;14.33;12.67;;;;;18.19;64.34;101790.91;5036312;28;45388;-62
2021/07/16 01:19:05;;;;;;;;;16.67;15.00;;;;;18.19;64.59;101793.56;5035893;28;45334;-61
2021/07/16 01:21:33;;;;;;;;;14.33;13.67;;;;;18.17;64.97;101800.81;5034656;28;45853;-62
2021/07/16 01:23:59;;;;;;;;;19.33;18.67;;;;;18.14;64.61;101791.31;5035493;28;46754;-63
2021/07/16 01:26:24;;;;;;;;;14.67;10.67;;;;;18.14;64.50;101795.78;5032517;28;45442;-63
2021/07/16 01:28:52;;;;;;;;;11.33;9.00;;;;;18.14;65.13;101806.44;5035305;28;46043;-62
2021/07/16 01:31:19;;;;;;;;;5.33;4.33;;;;;18.10;64.58;101805.03;5036206;28;45530;-61
2021/07/16 01:33:44;;;;;;;;;8.67;7.67;;;;;18.09;64.89;101798.84;5034817;28;45529;-65
2021/07/16 01:36:10;;;;;;;;;12.33;9.33;;;;;18.09;65.15;101804.19;5034877;28;45478;-64
2021/07/16 01:38:35;;;;;;;;;42.00;33.33;;;;;18.08;65.05;101802.47;5035051;28;45522;-62
2021/07/16 01:41:00;;;;;;;;;12.33;10.67;;;;;18.07;64.72;101800.81;5036606;28;45489;-64
2021/07/16 01:43:26;;;;;;;;;9.00;7.33;;;;;18.08;65.15;101802.47;5034059;28;46076;-62
2021/07/16 01:45:52;;;;;;;;;12.67;8.00;;;;;18.09;65.33;101793.53;5035179;28;45324;-62
2021/07/16 01:48:17;;;;;;;;;12.00;9.00;;;;;18.09;65.75;101808.66;5034790;28;45503;-63
2021/07/16 01:50:46;;;;;;;;;11.67;11.33;;;;;18.08;65.46;101805.16;5034989;28;45429;-62
2021/07/16 01:53:15;;;;;;;;;12.00;9.00;;;;;18.08;65.37;101806.97;5035151;28;45502;-62
2021/07/16 01:55:41;;;;;;;;;10.33;8.67;;;;;18.06;65.40;101804.47;5035761;28;45325;-62
2021/07/16 01:58:08;;;;;;;;;9.67;7.67;;;;;18.05;65.46;101797.44;5035713;28;45336;-62
2021/07/16 02:00:37;;;;;;;;;7.00;7.00;;;;;18.08;65.63;101802.47;5035201;28;45543;-61
2021/07/16 02:03:05;;;;;;;;;9.00;8.67;;;;;18.12;65.51;101798.59;5033957;28;46555;-61
2021/07/16 02:05:32;;;;;;;;;10.67;9.33;;;;;18.13;65.03;101794.94;5032363;28;45562;-62
2021/07/16 02:08:19;;;;;;;;;12.67;8.67;;;;;18.14;65.32;101791.31;5035451;28;45590;-61
2021/07/16 02:10:48;;;;;;;;;9.00;7.00;;;;;18.11;65.42;101788.06;5033453;28;45528;-62
2021/07/16 02:13:13;;;;;;;;;11.67;10.67;;;;;18.12;65.65;101793.28;5032544;28;45497;-61
2021/07/16 02:15:41;;;;;;;;;10.67;9.67;;;;;18.15;65.60;101794.81;5034988;28;45278;-62
2021/07/16 02:18:07;;;;;;;;;12.00;8.33;;;;;18.13;65.78;101792.28;5034726;28;45411;-63
2021/07/16 02:20:35;;;;;;;;;10.33;10.00;;;;;18.08;65.77;101802.47;5034303;28;45463;-62
2021/07/16 02:23:05;;;;;;;;;14.67;11.33;;;;;18.06;66.31;101798.28;5018407;28;46368;-63
2021/07/16 02:25:30;;;;;;;;;15.33;9.33;;;;;17.98;66.48;101798.97;5031204;28;45549;-61
2021/07/16 02:27:58;;;;;;;;;11.67;8.00;;;;;17.91;66.78;101792.50;5032854;28;45417;-62
2021/07/16 02:30:25;;;;;;;;;8.67;8.67;;;;;17.87;67.28;101789.25;5034462;28;45525;-63
2021/07/16 02:32:51;;;;;;;;;13.00;10.00;;;;;17.85;67.54;101793.03;5034578;28;46310;-62
2021/07/16 02:35:17;;;;;;;;;12.33;8.67;;;;;17.88;67.80;101790.94;5034275;28;45383;-62
2021/07/16 02:37:43;;;;;;;;;16.33;12.33;;;;;17.87;67.86;101793.75;5034110;28;45462;-61
2021/07/16 02:40:10;;;;;;;;;11.33;9.33;;;;;17.82;67.65;101791.50;5034992;28;45607;-62
2021/07/16 02:42:36;;;;;;;;;7.00;5.33;;;;;17.80;67.61;101794.28;5034121;28;45504;-62
2021/07/16 02:45:08;;;;;;;;;10.33;9.67;;;;;17.83;67.86;101798.50;5034813;28;45474;-61
2021/07/16 02:47:35;;;;;;;;;9.00;9.00;;;;;17.81;67.88;101797.78;5032957;28;45345;-61
2021/07/16 02:50:01;;;;;;;;;10.00;9.00;;;;;17.77;68.10;101793.72;5016720;28;45477;-62
2021/07/16 02:52:26;;;;;;;;;10.00;8.00;;;;;17.70;68.80;101788.09;5034541;28;45454;-62
2021/07/16 02:54:52;;;;;;;;;7.67;6.67;;;;;17.71;68.39;101787.13;5034095;28;45470;-62
2021/07/16 02:57:17;;;;;;;;;9.33;8.33;;;;;17.71;68.33;101792.44;5033241;28;45529;-61
2021/07/16 02:59:42;;;;;;;;;10.67;9.67;;;;;17.72;68.17;101795.94;5033916;28;45335;-62
2021/07/16 03:02:08;;;;;;;;;9.33;8.67;;;;;17.71;68.35;101803.06;5033706;28;45293;-61
2021/07/16 03:04:33;;;;;;;;;8.33;7.00;;;;;17.70;68.37;101789.94;5034213;28;45352;-61
2021/07/16 03:06:59;;;;;;;;;12.67;9.33;;;;;17.68;68.02;101791.88;5034032;28;45617;-63
2021/07/16 03:09:24;;;;;;;;;8.00;8.00;;;;;17.68;68.11;101792.69;5034495;28;45457;-62
2021/07/16 03:11:49;;;;;;;;;8.00;6.67;;;;;17.72;68.13;101795.94;5033958;28;46409;-62
2021/07/16 03:14:15;;;;;;;;;9.00;8.33;;;;;17.71;68.19;101794.25;5034379;28;45581;-63
2021/07/16 03:16:40;;;;;;;;;12.00;8.67;;;;;17.72;68.68;101794.13;5030962;28;45672;-62
2021/07/16 03:19:06;;;;;;;;;8.00;5.33;;;;;17.70;68.57;101804.03;5029011;28;45773;-62
2021/07/16 03:21:33;;;;;;;;;11.67;9.33;;;;;17.69;68.41;101796.22;5039824;28;45931;-62
2021/07/16 03:23:58;;;;;;;;;8.67;7.67;;;;;17.70;68.24;101797.91;5026351;28;45470;-63
2021/07/16 03:26:24;;;;;;;;;8.00;7.00;;;;;17.73;68.21;101802.94;5031449;28;45588;-63
2021/07/16 03:28:49;;;;;;;;;9.33;8.33;;;;;17.76;68.21;101802.66;5025495;28;45421;-63
2021/07/16 03:31:14;;;;;;;;;6.33;5.33;;;;;17.79;68.12;101791.78;5031021;28;46257;-61
2021/07/16 03:33:40;;;;;;;;;10.00;6.33;;;;;17.83;67.81;101793.19;5027782;28;45322;-62
2021/07/16 03:36:06;;;;;;;;;10.00;9.00;;;;;17.89;67.82;101797.97;5028153;28;45552;-63
2021/07/16 03:38:31;;;;;;;;;7.67;6.00;;;;;17.90;67.73;101799.63;5031147;28;45496;-62
2021/07/16 03:40:59;;;;;;;;;8.00;8.00;;;;;17.92;67.41;101796.84;5015859;28;46006;-62
2021/07/16 03:43:24;;;;;;;;;8.33;7.00;;;;;17.91;67.81;101798.66;5019297;28;45286;-62
2021/07/16 03:45:53;;;;;;;;;8.67;7.00;;;;;17.93;67.91;101801.19;5020497;28;46455;-63
2021/07/16 03:48:19;;;;;;;;;9.67;8.00;;;;;17.94;67.83;101798.41;5019761;28;45518;-62
2021/07/16 03:50:47;;;;;;;;;11.33;10.00;;;;;17.89;67.84;101795.28;5019512;28;45891;-62
2021/07/16 03:53:13;;;;;;;;;11.00;8.67;;;;;17.84;68.15;101789.56;5016715;28;45510;-63
2021/07/16 03:55:40;;;;;;;;;9.00;7.00;;;;;17.80;67.90;101788.97;5017847;28;45443;-62
2021/07/16 03:58:05;;;;;;;;;8.33;7.67;;;;;17.79;68.28;101797.09;5033592;28;45416;-61
2021/07/16 04:00:31;;;;;;;;;12.00;9.00;;;;;17.74;68.54;101792.16;5033400;28;45399;-62
2021/07/16 04:02:57;;;;;;;;;11.50;8.50;;;;;17.71;68.49;101794.25;5034341;28;45463;-61
2021/07/16 04:05:23;;;;;;;;;12.67;6.33;;;;;17.68;68.65;101787.38;5034219;28;45389;-63
2021/07/16 04:07:50;;;;;;;;;14.00;8.33;;;;;17.71;68.73;101788.94;5034295;28;45581;-63
2021/07/16 04:10:18;;;;;;;;;13.00;9.00;;;;;17.69;68.50;101782.94;5034510;28;46353;-61
2021/07/16 04:12:58;;;;;;;;;8.33;7.33;;;;;17.68;68.69;101781.25;5034014;28;45319;-63
2021/07/16 04:15:26;;;;;;;;;11.67;9.00;;;;;17.69;69.11;101791.72;5033156;28;45495;-63
2021/07/16 04:17:52;;;;;;;;;11.67;7.33;;;;;17.71;69.02;101794.25;5031675;28;45493;-63
2021/07/16 04:20:18;;;;;;;;;8.67;7.00;;;;;17.72;68.94;101790.63;5033341;28;45339;-63
2021/07/16 04:22:45;;;;;;;;;12.67;11.33;;;;;17.75;69.04;101790.38;5033609;28;45531;-66
2021/07/16 04:25:14;;;;;;;;;8.00;7.00;;;;;17.83;68.89;101803.81;5034020;28;45292;-66
2021/07/16 04:27:41;;;;;;;;;7.00;7.00;;;;;17.91;69.06;101800.47;5035623;28;45478;-65
2021/07/16 04:30:08;;;;;;;;;10.67;6.67;;;;;17.93;68.70;101807.38;5036556;28;46348;-67
2021/07/16 04:32:33;;;;;;;;;8.33;6.00;;;;;17.95;68.52;101807.22;5037337;28;45412;-65
2021/07/16 04:34:59;;;;;;;;;14.00;9.33;;;;;17.96;69.09;101812.41;5037365;28;45504;-65
2021/07/16 04:37:24;;;;;;;;;8.00;7.00;;;;;17.95;68.67;101810.72;5038148;28;45615;-66
2021/07/16 04:39:50;;;;;;;;;8.33;7.00;;;;;17.95;68.91;101808.06;5052125;28;47343;-67
2021/07/16 04:42:16;;;;;;;;;8.00;6.00;;;;;17.98;69.02;101806.94;5037098;28;45469;-66
2021/07/16 04:44:41;;;;;;;;;6.00;6.00;;;;;17.98;68.64;101806.94;5037011;28;45443;-65
2021/07/16 04:47:07;;;;;;;;;7.33;5.67;;;;;18.02;69.02;101812.84;5052591;28;45609;-66
2021/07/16 04:49:32;;;;;;;;;7.33;6.67;;;;;18.01;69.12;101811.16;5038227;28;46563;-67
2021/07/16 04:51:59;;;;;;;;;6.67;6.67;;;;;18.02;68.76;101813.69;5036954;28;45507;-66
2021/07/16 04:54:24;;;;;;;;;7.33;7.33;;;;;18.03;68.96;101811.88;5028985;28;45515;-66
2021/07/16 04:56:50;;;;;;;;;10.00;6.67;;;;;18.06;68.95;101820.41;5034712;28;45462;-66
2021/07/16 04:59:15;;;;;;;;;9.00;7.00;;;;;18.09;69.00;101813.97;5029741;28;45390;-67
2021/07/16 05:01:40;;;;;;;;;7.00;6.33;;;;;18.09;69.11;101813.97;5036019;28;45460;-65
2021/07/16 05:04:06;;;;;;;;;6.33;5.33;;;;;18.06;69.05;101814.22;5037150;28;45872;-66
2021/07/16 05:06:31;;;;;;;;;7.67;7.00;;;;;18.07;69.08;101822.09;5036375;28;45524;-66
2021/07/16 05:08:56;;;;;;;;;4.00;4.00;;;;;18.05;69.00;101813.41;5036827;28;46479;-66
2021/07/16 05:11:22;;;;;;;;;9.00;7.33;;;;;18.03;69.52;101812.69;5052287;28;45602;-65
2021/07/16 05:13:48;;;;;;;;;8.00;7.67;;;;;17.97;69.25;101816.75;5036284;28;45796;-66
2021/07/16 05:16:14;;;;;;;;;10.00;7.33;;;;;17.93;69.61;101815.34;5037539;28;45423;-65
2021/07/16 05:18:41;;;;;;;;;7.67;5.67;;;;;17.91;69.37;101816.41;5036035;28;46287;-66
2021/07/16 05:21:07;;;;;;;;;7.67;7.67;;;;;17.93;69.55;101828.63;5036137;28;45305;-66
2021/07/16 05:23:33;;;;;;;;;8.33;7.00;;;;;17.93;69.36;101825.13;5036208;28;45600;-66
2021/07/16 05:25:58;;;;;;;;;9.67;7.67;;;;;17.90;69.57;101831.50;5036327;28;45556;-66
2021/07/16 05:28:24;;;;;;;;;5.00;5.00;;;;;17.84;69.81;101826.75;5036467;28;45442;-67
2021/07/16 05:30:50;;;;;;;;;9.67;7.00;;;;;17.82;69.55;101826.03;5036642;28;45773;-66
2021/07/16 05:33:16;;;;;;;;;8.33;5.67;;;;;17.82;69.64;101828.69;5036277;28;45533;-67
2021/07/16 05:35:42;;;;;;;;;8.00;8.00;;;;;17.79;69.89;101834.28;5036287;28;45370;-65
2021/07/16 05:38:08;;;;;;;;;9.00;8.00;;;;;17.75;69.99;101830.22;5022245;28;46623;-66
2021/07/16 05:40:35;;;;;;;;;8.00;6.00;;;;;17.76;69.85;101834.53;5036976;28;45497;-66
2021/07/16 05:43:06;;;;;;;;;7.67;6.67;;;;;17.79;69.62;101834.28;5030933;28;45352;-66
2021/07/16 05:45:32;;;;;;;;;10.67;6.67;;;;;17.83;69.30;101837.53;5032374;28;45444;-65
2021/07/16 05:48:00;;;;;;;;;7.00;6.67;;;;;17.89;69.55;101836.97;5036225;28;46381;-67
2021/07/16 05:50:25;;;;;;;;;8.67;5.67;;;;;17.97;69.46;101843.31;5036227;28;45301;-66
2021/07/16 05:52:51;;;;;;;;;7.33;7.00;;;;;18.01;69.31;101848.34;5036187;28;45411;-66
2021/07/16 05:55:16;;;;;;;;;4.33;4.33;;;;;18.02;69.23;101850.06;5036439;28;45752;-66
2021/07/16 05:57:41;;;;;;;;;8.33;6.00;;;;;18.05;69.07;101847.13;5035538;28;47737;-66
2021/07/16 06:00:08;;;;;;;;;7.67;6.00;;;;;18.07;69.02;101845.16;5034370;28;45620;-66
2021/07/16 06:02:33;;;;;;;;;6.00;6.00;;;;;18.10;68.88;101852.88;5036384;28;45384;-65
2021/07/16 06:04:59;;;;;;;;;5.33;5.33;;;;;18.08;68.86;101857.50;5035575;28;45539;-66
2021/07/16 06:07:24;;;;;;;;;9.00;5.00;;;;;18.09;69.21;101861.84;5036381;28;45454;-66
2021/07/16 06:09:49;;;;;;;;;6.00;6.00;;;;;18.05;68.77;101855.94;5035543;28;45482;-65
2021/07/16 06:12:16;;;;;;;;;8.00;5.67;;;;;18.05;68.64;101871.06;5034729;28;45872;-66
2021/07/16 06:14:41;;;;;;;;;7.00;6.67;;;;;17.98;69.01;101866.28;5035376;28;45502;-66
2021/07/16 06:17:08;;;;;;;;;9.67;7.67;;;;;17.95;69.35;101861.22;5035092;28;46432;-65
2021/07/16 06:19:33;;;;;;;;;7.00;5.67;;;;;17.97;69.13;101869.91;5036171;28;45339;-67
2021/07/16 06:21:59;;;;;;;;;12.00;6.33;;;;;17.99;69.24;101872.44;5035909;28;45356;-66
2021/07/16 06:24:24;;;;;;;;;5.67;5.00;;;;;18.01;69.03;101875.81;5034998;28;45650;-67
2021/07/16 06:26:50;;;;;;;;;6.00;5.33;;;;;18.06;69.11;101883.34;5036707;28;45785;-66
2021/07/16 06:29:15;;;;;;;;;7.00;4.67;;;;;18.08;68.88;101879.59;5022902;28;45340;-66
2021/07/16 06:31:40;;;;;;;;;6.33;5.67;;;;;18.08;68.70;101886.72;5035416;28;45344;-66
2021/07/16 06:34:06;;;;;;;;;5.67;5.67;;;;;18.06;68.81;101886.03;5034556;28;45448;-66
2021/07/16 06:36:31;;;;;;;;;5.67;3.67;;;;;18.01;69.00;101872.28;5035263;28;45677;-68
2021/07/16 06:38:56;;;;;;;;;5.67;5.00;;;;;17.97;68.84;101879.72;5031127;28;45438;-66
2021/07/16 06:41:22;;;;;;;;;7.33;7.33;;;;;18.00;68.98;101886.59;5034554;28;45478;-66
2021/07/16 06:43:47;;;;;;;;;5.67;5.67;;;;;18.01;68.77;101890.91;5035055;28;45518;-65
2021/07/16 06:46:13;;;;;;;;;7.33;5.67;;;;;18.00;69.07;101887.41;5035140;28;46256;-67
2021/07/16 06:48:42;;;;;;;;;6.00;5.00;;;;;18.02;68.75;101888.13;5034513;28;45389;-67
2021/07/16 06:51:09;;;;;;;;;6.33;5.00;;;;;18.06;69.01;101884.22;5033977;28;45787;-67
2021/07/16 06:53:34;;;;;;;;;5.00;5.00;;;;;18.12;68.81;101896.13;5034611;28;45523;-67
2021/07/16 06:55:59;;;;;;;;;6.67;3.00;;;;;18.11;68.57;101891.78;5034496;28;46548;-67
2021/07/16 06:58:25;;;;;;;;;8.33;5.00;;;;;18.13;68.60;101895.16;5035583;28;45266;-67
2021/07/16 07:00:50;;;;;;;;;6.33;5.33;;;;;18.16;68.52;101894.88;5034610;28;45359;-68
2021/07/16 07:03:16;;;;;;;;;6.00;6.00;;;;;18.18;68.58;101895.59;5034713;28;45428;-67
2021/07/16 07:05:41;;;;;;;;;4.00;4.00;;;;;18.24;68.57;101902.16;5034355;28;45663;-67
2021/07/16 07:08:06;;;;;;;;;6.00;3.67;;;;;18.27;68.26;101913.38;5034854;28;45593;-66
2021/07/16 07:10:32;;;;;;;;;46.00;34.67;;;;;18.25;68.23;101899.41;5035676;28;45346;-66
2021/07/16 07:12:57;;;;;;;;;4.33;3.67;;;;;18.27;68.28;101908.06;5034546;28;45716;-66
2021/07/16 07:15:23;;;;;;;;;7.67;7.00;;;;;18.28;68.09;101899.13;5034354;28;45903;-67
2021/07/16 07:17:48;;;;;;;;;55.00;35.00;;;;;18.35;68.04;101903.91;5034422;28;45555;-66
2021/07/16 07:20:14;;;;;;;;;11.00;7.00;;;;;18.40;68.03;101907.81;5034489;28;45457;-67
2021/07/16 07:22:40;;;;;;;;;58.00;44.00;;;;;18.44;68.01;101903.06;5035280;28;45497;-66
2021/07/16 07:25:07;;;;;;;;;6.00;5.00;;;;;18.47;67.68;101913.44;5034587;28;47608;-70
2021/07/16 07:27:32;;;;;;;;;14.00;13.67;;;;;18.49;67.67;101900.84;5034144;28;45483;-67
2021/07/16 07:29:59;;;;;;;;;36.33;30.33;;;;;18.48;67.41;101909.78;5034498;28;45738;-67
2021/07/16 07:32:24;;;;;;;;;7.00;7.00;;;;;18.47;67.37;101905.44;5034566;28;45461;-66
2021/07/16 07:34:50;;;;;;;;;19.67;16.67;;;;;18.46;67.47;101911.75;5033748;28;45591;-67
2021/07/16 07:37:15;;;;;;;;;3.00;3.00;;;;;18.41;67.52;101909.50;5034970;28;45482;-67
2021/07/16 07:39:41;;;;;;;;;4.00;3.00;;;;;18.39;67.56;101913.28;5033655;28;45428;-67
2021/07/16 07:42:11;;;;;;;;;5.00;3.33;;;;;18.37;67.77;101904.59;5034397;28;45482;-66
2021/07/16 07:44:36;;;;;;;;;5.67;5.00;;;;;18.39;67.86;101921.25;5034104;28;45610;-66
2021/07/16 07:47:02;;;;;;;;;4.00;4.00;;;;;18.37;67.48;101913.44;5034107;28;45333;-68
2021/07/16 07:49:28;;;;;;;;;3.67;3.67;;;;;18.35;67.81;101919.84;5034925;28;45303;-66
2021/07/16 07:51:54;;;;;;;;;3.67;3.67;;;;;18.37;67.55;101920.53;5049778;28;45555;-66
2021/07/16 07:54:19;;;;;;;;;4.67;3.00;;;;;18.42;67.74;101923.63;5033778;28;47141;-66
2021/07/16 07:56:44;;;;;;;;;5.33;3.00;;;;;18.54;67.46;101919.03;5034224;28;45308;-67
2021/07/16 07:59:10;;;;;;;;;4.67;3.33;;;;;18.69;67.33;101919.50;5034434;28;45637;-66
2021/07/16 08:01:35;;;;;;;;;4.67;3.00;;;;;18.80;66.79;101930.03;5033613;28;45462;-66
2021/07/16 08:04:02;;;;;;;;;5.67;2.67;;;;;18.83;65.79;101932.41;5034632;28;46105;-66
2021/07/16 08:06:27;;;;;;;;;3.67;2.00;;;;;18.80;66.22;101932.69;5034118;28;45542;-67
2021/07/16 08:08:53;;;;;;;;;4.67;3.33;;;;;18.83;65.63;101940.38;5034047;28;45370;-66
2021/07/16 08:11:18;;;;;;;;;3.00;2.00;;;;;18.79;64.91;101941.63;5034693;28;45469;-66
2021/07/16 08:13:44;;;;;;;;;3.00;2.67;;;;;18.72;65.38;101943.16;5034102;28;45545;-66
2021/07/16 08:16:09;;;;;;;;;3.33;2.00;;;;;18.66;65.24;101949.06;5033576;28;45464;-66
2021/07/16 08:18:35;;;;;;;;;1.00;1.00;;;;;18.55;65.65;101948.19;5049758;28;45522;-66
2021/07/16 08:21:01;;;;;;;;;1.00;1.00;;;;;18.48;65.95;101947.03;5034133;28;45491;-67
2021/07/16 08:23:26;;;;;;;;;4.00;3.00;;;;;18.48;66.01;101947.03;5048857;28;47076;-65
2021/07/16 08:25:51;;;;;;;;;2.33;2.00;;;;;18.51;65.98;101945.94;5033891;28;45483;-66
2021/07/16 08:28:17;;;;;;;;;3.33;2.00;;;;;18.51;65.94;101952.06;5035147;28;45411;-66
2021/07/16 08:30:42;;;;;;;;;2.00;2.00;;;;;18.50;65.77;101955.75;5034711;28;45354;-66
2021/07/16 08:33:08;;;;;;;;;2.00;2.00;;;;;18.48;65.96;101955.84;5033792;28;45530;-67
2021/07/16 08:35:33;;;;;;;;;2.00;2.00;;;;;18.50;65.74;101966.38;5034022;28;45568;-66
2021/07/16 08:38:00;;;;;;;;;1.00;1.00;;;;;18.49;65.71;101959.38;5034130;28;45494;-67
2021/07/16 08:40:25;;;;;;;;;5.00;2.00;;;;;18.51;65.79;101961.88;5034681;28;45336;-65
2021/07/16 08:42:51;;;;;;;;;2.00;2.00;;;;;18.57;65.79;101959.53;5033735;28;45540;-67
2021/07/16 08:45:17;;;;;;;;;2.00;2.00;;;;;18.65;65.60;101958.84;5033980;28;45558;-66
2021/07/16 08:47:43;;;;;;;;;8.33;6.33;;;;;18.74;64.82;101962.50;5033932;28;45546;-65
2021/07/16 08:50:11;;;;;;;;;4.00;1.00;;;;;18.74;65.43;101967.81;5033954;28;45490;-67
2021/07/16 08:52:44;;;;;;;;;1.00;1.00;;;;;18.80;65.04;101961.97;5033473;28;47198;-67
2021/07/16 08:55:10;;;;;;;;;2.00;2.00;;;;;18.81;64.84;101971.59;5034321;28;45395;-66
2021/07/16 08:57:35;;;;;;;;;2.67;2.00;;;;;18.77;64.47;101971.06;5033948;28;45335;-68
2021/07/16 09:00:01;;;;;;;;;2.67;2.00;;;;;18.69;64.47;101972.72;5033184;28;45567;-65
2021/07/16 09:02:31;;;;;;;;;2.33;2.00;;;;;18.61;64.69;101971.56;5034009;28;46476;-66
2021/07/16 09:05:03;;;;;;;;;1.00;1.00;;;;;18.62;64.91;101975.09;5033557;28;45365;-65
2021/07/16 09:07:29;;;;;;;;;1.00;1.00;;;;;18.66;64.93;101973.84;5034318;28;45241;-66
2021/07/16 09:10:08;;;;;;;;;2.00;1.67;;;;;18.74;64.23;101979.31;5033846;28;45996;-67
2021/07/16 09:12:35;;;;;;;;;1.33;1.33;;;;;18.85;64.20;101981.03;5034145;28;46984;-66
2021/07/16 09:15:07;;;;;;;;;2.33;1.67;;;;;19.02;63.75;101973.34;5036644;28;45451;-66
2021/07/16 09:17:34;;;;;;;;;3.33;2.00;;;;;19.16;63.28;101978.25;5037362;28;45329;-66
2021/07/16 09:19:59;;;;;;;;;2.00;2.00;;;;;19.31;63.09;101980.53;5035100;28;45340;-65
2021/07/16 09:22:25;;;;;;;;;2.00;2.00;;;;;19.39;62.63;101970.81;5037492;28;46547;-66
2021/07/16 09:25:23;;;;;;;;;3.67;2.00;;;;;19.56;62.38;101963.91;5036531;28;45465;-66
2021/07/16 09:27:48;;;;;;;;;2.67;2.00;;;;;19.73;60.10;101978.34;5023134;28;45542;-65
2021/07/16 09:30:15;;;;;;;;;3.00;3.00;;;;;19.92;60.62;101964.13;5036707;28;45485;-65
2021/07/16 09:32:44;;;;;;;;;6.00;3.00;;;;;20.08;59.25;101960.00;5036440;28;45601;-66
2021/07/16 09:35:10;;;;;;;;;2.33;1.67;;;;;20.26;58.63;101960.09;5036343;28;45452;-65
2021/07/16 09:37:52;;;;;;;;;5.33;4.00;;;;;20.25;58.47;101963.72;5036970;28;45458;-65
2021/07/16 09:40:36;;;;;;;;;2.67;2.67;;;;;20.22;58.25;101972.88;5035697;28;45349;-65
2021/07/16 09:43:10;;;;;;;;;4.33;4.00;;;;;20.19;58.98;101978.50;5036975;28;47262;-65
2021/07/16 09:45:37;;;;;;;;;3.00;3.00;;;;;20.14;58.83;101972.78;5036448;28;45515;-66
2021/07/16 09:48:26;;;;;;;;;6.00;5.00;;;;;20.04;58.59;101971.97;5036587;28;45392;-66
2021/07/16 09:51:26;;;;;;;;;4.00;4.00;;;;;20.02;59.93;101979.25;5036810;28;45447;-67
2021/07/16 09:54:04;;;;;;;;;3.00;3.00;;;;;20.06;59.47;101972.69;5036450;28;46380;-66
2021/07/16 09:56:31;;;;;;;;;5.33;5.33;;;;;19.98;58.76;101985.88;5024086;28;45408;-65
2021/07/16 09:59:06;;;;;;;;;4.33;3.67;;;;;19.90;59.53;101987.47;5036717;28;45564;-66
2021/07/16 10:01:36;;;;;;;;;5.67;5.67;;;;;19.87;60.07;101993.06;5031095;28;45277;-65
2021/07/16 10:04:04;;;;;;;;;7.67;6.33;;;;;19.95;59.92;101985.19;5035182;28;46053;-65
2021/07/16 10:06:29;;;;;;;;;3.00;3.00;;;;;20.08;59.60;101986.69;5035698;28;45553;-66
2021/07/16 10:08:56;;;;;;;;;3.00;3.00;;;;;20.20;59.29;101982.88;5051453;28;45500;-65
2021/07/16 10:11:24;;;;;;;;;2.67;2.67;;;;;20.33;58.16;101987.88;5036308;28;45622;-67
2021/07/16 10:13:50;;;;;;;;;3.00;3.00;;;;;20.44;58.85;101989.50;5036189;28;45831;-67
2021/07/16 10:16:15;;;;;;;;;3.00;3.00;;;;;20.56;57.70;101990.97;5034537;28;45502;-65
2021/07/16 10:18:41;;;;;;;;;3.33;3.33;;;;;20.60;57.35;101995.03;5035618;28;45483;-66
2021/07/16 10:21:08;;;;;;;;;4.33;2.33;;;;;20.66;56.42;102000.75;5035652;28;45478;-66
2021/07/16 10:23:35;;;;;;;;;6.00;4.00;;;;;20.68;57.13;101999.63;5035689;28;46424;-66
2021/07/16 10:26:07;;;;;;;;;2.00;2.00;;;;;20.70;56.75;102000.31;5034674;28;45408;-67
2021/07/16 10:28:39;;;;;;;;;4.00;3.00;;;;;20.79;57.25;102001.25;5032400;28;45401;-67
2021/07/16 10:31:28;;;;;;;;;4.00;3.00;;;;;20.91;56.99;102008.06;5036031;28;45254;-66
2021/07/16 10:33:54;;;;;;;;;7.00;4.00;;;;;20.96;55.57;102009.44;5035177;28;46313;-67
2021/07/16 10:36:37;;;;;;;;;10.00;6.67;;;;;20.93;56.06;102019.44;5035638;28;45329;-66
2021/07/16 10:39:09;;;;;;;;;5.00;5.00;;;;;20.86;56.53;102014.84;5036047;28;45502;-67
2021/07/16 10:41:37;;;;;;;;;6.00;6.00;;;;;20.78;56.05;102018.25;5034824;28;45353;-66
2021/07/16 10:44:03;;;;;;;;;7.00;5.00;;;;;20.74;56.34;102009.72;5019456;28;46176;-67
2021/07/16 10:46:35;;;;;;;;;6.67;5.33;;;;;20.76;56.01;102022.94;5035066;28;45312;-67
2021/07/16 10:49:03;;;;;;;;;6.00;6.00;;;;;20.75;55.52;102023.91;5035640;28;45519;-66
2021/07/16 10:51:31;;;;;;;;;6.33;5.33;;;;;20.71;56.07;102023.38;5035531;28;45566;-65
2021/07/16 10:53:59;;;;;;;;;6.00;6.00;;;;;20.73;54.55;102036.56;5035089;28;45378;-66
2021/07/16 10:56:47;;;;;;;;;4.00;4.00;;;;;20.77;55.77;102028.13;5035477;28;46010;-65
2021/07/16 10:59:44;;;;;;;;;6.00;5.67;;;;;20.83;55.25;102026.66;5020639;28;47732;-67
2021/07/16 11:02:44;;;;;;;;;8.00;7.00;;;;;20.90;55.46;102038.44;5019709;28;45438;-66
2021/07/16 11:05:32;;;;;;;;;12.33;8.00;;;;;20.97;54.62;102032.50;5020126;28;46274;-67
2021/07/16 11:08:02;;;;;;;;;8.00;6.33;;;;;20.91;54.54;102040.13;5035224;28;45438;-66
2021/07/16 11:10:47;;;;;;;;;7.33;7.00;;;;;20.87;54.86;102038.72;5036179;28;45517;-67
2021/07/16 11:13:33;;;;;;;;;8.67;7.00;;;;;20.93;54.23;102043.47;5034922;28;45505;-67
2021/07/16 11:15:59;;;;;;;;;5.33;5.00;;;;;20.97;54.10;102043.19;5034245;28;46377;-66
2021/07/16 11:18:28;;;;;;;;;9.00;9.00;;;;;21.05;54.80;102040.59;5034984;28;45581;-66
2021/07/16 11:20:57;;;;;;;;;10.00;7.00;;;;;21.19;53.69;102041.91;5034928;28;45515;-68
2021/07/16 11:23:50;;;;;;;;;8.00;6.33;;;;;21.27;53.44;102037.47;5035203;28;45372;-66